Yacuíba, Bolivia

12:52 PM BOT en Enero 23, 2017 (GMT -0400)
Yacuiba | | Change Station

Alt 2113 ft 21.96 °S, 63.65 °W | Updated 52 minutes ago

Niebla
Niebla
73 ° F
Sensación térmica 73 ° F
N
0
Viento Variable Viento desde Norte

Hoy
Alta -- | Baja -- ° F
--% Posibilidad de precipitaciones
Ayer
Alta -- | Baja -- ° F
Precip. -- pul
Presión 29.95 pul
Visibilidad 3.7 Millas
Nubes Nubes dispersas 400 ft
Muy nublado 1000 ft
Nublado 7000 ft
Punto de rocío 72 ° F
Humedad 94%
Precipitaciones 0.00 pul
Espesor de la nieve No disponible.
5:50 AM 7:03 PM
Creciente menguante, 17% visible
METAR SLYA 231600Z 00000KT 6000 -DZ SCT004 BKN010 OVC070 23/22 Q1014
Presión 29.95 pul
Visibilidad 3.7 Millas
Nubes Nubes dispersas 400 ft
Muy nublado 1000 ft
Nublado 7000 ft
Punto de rocío 72 ° F
Humedad 94%
Precipitaciones 0.00 pul
Espesor de la nieve No disponible.
5:50 AM 7:03 PM
Creciente menguante, 17% visible
METAR SLYA 231600Z 00000KT 6000 -DZ SCT004 BKN010 OVC070 23/22 Q1014

Get Your Daily Forecast Email!

Thanks for signing up!

Be on the lookout for a verification email in your inbox.

You'll start receiving the daily forecast at 8 AM.

×

10-Day Weather Forecast

No radar image for this location.
×

Almanac

Astronomía

Jan. 23, 2017 Salida Puesta
Hora real
Crepúsculo civil
Crepúsculo náutico
Crepúsculo astronómico
Luna
Horas de luz
Horas de luz
Tomorrow will be .
, % of the Moon is Illuminated

Extremos de hoy

Máximos del país Bajas del país

Community

WunderPhotos

Upload Photos

1,962,540 ¡fotos cargadas!

WunderBlog® & News

Nearby

Calidad del aire

  Calidad del aire Índice AQ Contaminante
Not available.

Grosos de nieve

Estación Profundido Altura

Actividad de terremotos

Ciudad Distance Mag. Tiempo y dato
Magnitud mínima muestra es 2,5.

Temperaturas de aguas costeras

Lugar Temperatura

Stations

Estaciones meteorológicas cercanas

Ubicación de la estación Temp. Vientos helados Punto de rocío Humedad Viento Precip. Alt Actualizado Tipo